Time;durP1;ratioP1;P1;durP2;ratioP2;P2;SDS_P1;SDS_P2;PMS_P1;PMS_P2;Temp;Humidity;BMP_temperature;BMP_pressure;BME280_temperature;BME280_humidity;BME280_pressure;Samples;Min_cycle;Max_cycle;Signal;HPM_P1;HPM_P2
2023/04/26 00:01:07;;;;;;;5.67;4.03;;;;;;;10.57;90.06;93902.72;5011427;28;20231;-74
2023/04/26 00:03:32;;;;;;;5.80;3.77;;;;;;;10.55;89.78;93896.13;5011299;28;20204;-74
2023/04/26 00:06:04;;;;;;;6.73;3.80;;;;;;;10.50;89.57;93896.00;5011126;28;20196;-74
2023/04/26 00:08:30;;;;;;;6.30;4.03;;;;;;;10.48;89.58;93887.53;5011659;28;20658;-74
2023/04/26 00:10:55;;;;;;;6.23;3.23;;;;;;;10.44;89.82;93883.78;5011495;28;20191;-74
2023/04/26 00:13:21;;;;;;;5.30;3.65;;;;;;;10.40;89.49;93877.38;5010509;28;20417;-74
2023/04/26 00:15:46;;;;;;;5.87;3.23;;;;;;;10.36;89.37;93876.28;5011251;28;20186;-74
2023/04/26 00:18:12;;;;;;;4.03;3.30;;;;;;;10.37;89.15;93883.94;4999961;28;20173;-74
2023/04/26 00:20:38;;;;;;;6.03;3.60;;;;;;;10.34;89.31;93873.88;4991128;28;20561;-74
2023/04/26 00:23:03;;;;;;;7.43;4.47;;;;;;;10.18;89.26;93850.94;4991607;28;20334;-73
2023/04/26 00:25:29;;;;;;;5.17;3.70;;;;;;;10.36;89.24;93876.28;4990829;28;20683;-74
2023/04/26 00:27:54;;;;;;;6.33;4.33;;;;;;;10.34;89.13;93867.81;4991442;28;20196;-74
2023/04/26 00:30:20;;;;;;;5.53;3.77;;;;;;;10.32;89.43;93869.88;4991355;28;20521;-74
2023/04/26 00:32:46;;;;;;;5.43;3.90;;;;;;;10.31;89.48;93874.31;4974111;28;20180;-74
2023/04/26 00:35:12;;;;;;;4.70;3.67;;;;;;;10.30;89.18;93870.09;4991416;28;20181;-74
2023/04/26 00:37:37;;;;;;;5.97;3.77;;;;;;;10.27;89.12;93867.16;4991435;28;20244;-74
2023/04/26 00:40:04;;;;;;;7.00;3.80;;;;;;;10.18;89.58;93864.88;4990690;28;20423;-73
2023/04/26 00:42:30;;;;;;;5.60;3.83;;;;;;;10.17;89.50;93870.34;4991480;28;20519;-74
2023/04/26 00:44:56;;;;;;;5.30;3.90;;;;;;;10.12;89.20;93871.00;4991275;28;20200;-74
2023/04/26 00:47:23;;;;;;;6.30;4.23;;;;;;;9.99;89.59;93850.25;4991337;28;20184;-74
2023/04/26 00:49:49;;;;;;;8.83;4.43;;;;;;;10.03;89.69;93871.63;4991294;28;20231;-74
2023/04/26 00:52:14;;;;;;;4.80;3.70;;;;;;;9.93;89.92;93859.06;4991452;28;20188;-74
2023/04/26 00:54:40;;;;;;;5.90;4.40;;;;;;;9.82;90.80;93865.94;4989901;28;20420;-74
2023/04/26 00:57:08;;;;;;;6.70;3.73;;;;;;;9.84;90.37;93860.44;4991159;28;20181;-74
2023/04/26 00:59:35;;;;;;;6.15;4.00;;;;;;;9.76;90.31;93860.81;4990542;28;20454;-74
2023/04/26 01:02:02;;;;;;;3.47;3.00;;;;;;;9.82;89.82;93859.88;4991278;28;20177;-74
2023/04/26 01:04:29;;;;;;;6.00;3.20;;;;;;;9.83;89.47;93872.00;4991252;28;20197;-74
2023/04/26 01:06:54;;;;;;;4.13;3.03;;;;;;;9.77;89.36;93868.44;4985382;28;20662;-74
2023/04/26 01:09:20;;;;;;;4.03;3.13;;;;;;;9.58;89.60;93847.78;4991220;28;20181;-74
2023/04/26 01:11:46;;;;;;;5.03;3.60;;;;;;;9.61;89.78;93876.22;4991065;28;20238;-74
2023/04/26 01:14:13;;;;;;;4.67;3.37;;;;;;;9.55;89.75;93870.06;4990964;28;20181;-74
2023/04/26 01:16:39;;;;;;;4.30;3.27;;;;;;;9.50;89.65;93875.22;4990938;28;20181;-73
2023/04/26 01:19:11;;;;;;;6.47;4.40;;;;;;;9.54;90.04;93875.53;4998045;28;20683;-74
2023/04/26 01:21:37;;;;;;;3.77;2.83;;;;;;;9.49;89.66;93862.31;5010689;28;20192;-73
2023/04/26 01:24:03;;;;;;;3.83;3.13;;;;;;;9.45;89.91;93854.06;5010488;28;20564;-74
2023/04/26 01:26:30;;;;;;;4.70;3.37;;;;;;;9.33;89.98;93840.94;5010168;28;20365;-74
2023/04/26 01:28:55;;;;;;;6.47;3.77;;;;;;;9.41;90.10;93858.19;5010369;28;20180;-74
2023/04/26 01:31:21;;;;;;;6.30;3.67;;;;;;;9.40;90.06;93861.84;5010790;28;20181;-74
2023/04/26 01:33:46;;;;;;;5.77;3.43;;;;;;;9.33;90.22;93867.22;5014383;28;20524;-74
2023/04/26 01:36:12;;;;;;;4.43;3.47;;;;;;;9.33;90.42;93871.66;4995450;28;20695;-74
2023/04/26 01:38:37;;;;;;;4.77;3.57;;;;;;;9.28;90.45;93866.28;4994576;28;20187;-74
2023/04/26 01:41:03;;;;;;;6.17;3.83;;;;;;;9.27;90.57;93862.84;4994555;28;20184;-73
2023/04/26 01:43:28;;;;;;;5.77;3.60;;;;;;;9.25;90.79;93862.28;4994501;28;20173;-73
2023/04/26 01:45:53;;;;;;;7.03;4.37;;;;;;;9.28;91.00;93869.69;4994563;28;20292;-74
2023/04/26 01:48:19;;;;;;;10.17;4.53;;;;;;;9.29;91.13;93881.00;4994483;28;20579;-74
2023/04/26 01:50:44;;;;;;;6.23;4.00;;;;;;;9.16;91.29;93854.97;4994512;28;20634;-74
2023/04/26 01:53:10;;;;;;;7.07;4.73;;;;;;;9.32;91.70;93870.06;4994424;28;20263;-74
2023/04/26 01:55:35;;;;;;;6.77;4.43;;;;;;;9.33;92.03;93867.22;4994361;28;20181;-74
2023/04/26 01:58:00;;;;;;;8.33;5.03;;;;;;;9.42;92.01;93871.09;5008007;28;20180;-74
2023/04/26 02:00:28;;;;;;;7.40;5.07;;;;;;;9.29;91.85;93850.28;5013855;28;20234;-74
2023/04/26 02:02:57;;;;;;;6.23;4.63;;;;;;;9.25;91.50;93841.28;5013884;28;20176;-74
2023/04/26 02:05:23;;;;;;;6.90;4.87;;;;;;;9.33;91.81;93854.06;5013947;28;20414;-74
2023/04/26 02:07:49;;;;;;;7.33;4.97;;;;;;;9.20;91.76;93830.66;5003504;28;20257;-74
2023/04/26 02:10:14;;;;;;;7.50;4.87;;;;;;;9.26;92.01;93837.59;4994066;28;20260;-74
2023/04/26 02:12:40;;;;;;;6.47;4.50;;;;;;;9.35;91.68;93848.56;4994014;28;20288;-74
2023/04/26 02:15:07;;;;;;;7.20;4.90;;;;;;;9.28;91.00;93843.44;4994113;28;20169;-74
2023/04/26 02:17:32;;;;;;;7.87;5.47;;;;;;;9.29;91.19;93844.25;5004757;28;20176;-74
2023/04/26 02:19:58;;;;;;;9.23;4.77;;;;;;;9.26;91.35;93842.06;5013516;28;20177;-74
2023/04/26 02:22:26;;;;;;;10.60;5.17;;;;;;;9.27;90.96;93843.66;5013512;28;20184;-74
2023/04/26 02:24:52;;;;;;;7.07;4.60;;;;;;;9.25;91.35;93843.13;5013198;28;20200;-74
2023/04/26 02:27:18;;;;;;;5.70;4.43;;;;;;;9.27;91.35;93841.84;5004846;28;20235;-74
2023/04/26 02:29:43;;;;;;;9.02;5.57;;;;;;;9.24;91.33;93842.31;4993067;28;20515;-74
2023/04/26 02:32:09;;;;;;;7.00;5.10;;;;;;;9.14;91.38;93842.06;4993791;28;20722;-74
2023/04/26 02:34:35;;;;;;;6.90;4.10;;;;;;;9.12;92.10;93845.94;4993598;28;20189;-74
2023/04/26 02:37:00;;;;;;;7.13;5.00;;;;;;;9.00;92.40;93824.91;4993549;28;20252;-74
2023/04/26 02:39:26;;;;;;;7.37;5.13;;;;;;;9.15;92.19;93854.16;4993700;28;20658;-74
2023/04/26 02:41:51;;;;;;;6.07;4.63;;;;;;;9.20;92.75;93848.22;5006982;28;20180;-74
2023/04/26 02:44:16;;;;;;;7.60;4.50;;;;;;;9.27;92.89;93851.53;5012596;28;20200;-74
2023/04/26 02:46:42;;;;;;;7.17;5.67;;;;;;;9.30;92.77;93848.47;5012250;28;20604;-74
2023/04/26 02:49:07;;;;;;;9.67;4.97;;;;;;;9.33;92.58;93840.16;5013148;28;20856;-74
2023/04/26 02:51:33;;;;;;;6.57;5.03;;;;;;;9.39;92.43;93837.41;5005448;28;20189;-74
2023/04/26 02:53:58;;;;;;;7.33;5.40;;;;;;;9.38;92.70;93827.91;4993116;28;20166;-74
2023/04/26 02:56:24;;;;;;;10.87;5.37;;;;;;;9.43;92.18;93835.91;5002279;28;20184;-74
2023/04/26 02:58:50;;;;;;;8.13;5.03;;;;;;;9.36;92.47;93810.78;4998177;28;20188;-74
2023/04/26 03:01:16;;;;;;;9.00;5.73;;;;;;;9.51;92.23;93826.91;4992571;28;20639;-74
2023/04/26 03:03:42;;;;;;;10.27;5.87;;;;;;;9.52;92.05;93831.09;4992803;28;20201;-73
2023/04/26 03:06:07;;;;;;;9.60;6.53;;;;;;;9.52;91.45;93833.72;4992936;28;20188;-74
2023/04/26 03:08:34;;;;;;;8.27;5.90;;;;;;;9.51;91.78;93826.91;4992939;28;20662;-74
2023/04/26 03:11:00;;;;;;;8.03;5.53;;;;;;;9.53;91.43;93824.81;4992752;28;20181;-74
2023/04/26 03:13:26;;;;;;;9.33;6.60;;;;;;;9.55;91.68;93835.91;4995051;28;20681;-74
2023/04/26 03:15:52;;;;;;;11.40;5.57;;;;;;;9.58;91.49;93834.66;4992443;28;20255;-74
2023/04/26 03:18:18;;;;;;;8.20;5.03;;;;;;;9.59;91.56;93828.38;4992646;28;20262;-74
2023/04/26 03:20:44;;;;;;;8.73;4.80;;;;;;;9.60;91.55;93833.38;4990697;28;20269;-73
2023/04/26 03:23:09;;;;;;;10.27;5.20;;;;;;;9.61;91.06;93834.19;5002220;28;20181;-74
2023/04/26 03:25:35;;;;;;;7.97;5.60;;;;;;;9.54;91.63;93820.38;5011261;28;20461;-74
2023/04/26 03:28:01;;;;;;;9.33;5.80;;;;;;;9.50;92.06;93829.75;5011941;28;20195;-74
2023/04/26 03:30:26;;;;;;;6.27;4.33;;;;;;;9.51;91.93;93828.72;5007803;28;20184;-74
2023/04/26 03:32:52;;;;;;;7.30;4.27;;;;;;;9.52;92.32;93827.66;4999590;28;20733;-74
2023/04/26 03:35:18;;;;;;;6.87;5.10;;;;;;;9.55;92.85;93827.22;5011474;28;20179;-74
2023/04/26 03:37:43;;;;;;;8.97;5.77;;;;;;;9.55;92.75;93829.84;4997858;28;20165;-74
2023/04/26 03:40:09;;;;;;;10.10;7.00;;;;;;;9.25;92.52;93812.41;5010698;28;20418;-73
2023/04/26 03:42:36;;;;;;;9.70;6.57;;;;;;;9.14;93.01;93836.81;5011964;28;20649;-73
2023/04/26 03:45:02;;;;;;;18.63;10.88;;;;;;;8.98;93.60;93848.78;5011087;28;20442;-73
2023/04/26 03:47:31;;;;;;;8.53;6.03;;;;;;;9.10;93.71;93848.78;4998449;28;20265;-73
2023/04/26 03:49:57;;;;;;;11.73;5.70;;;;;;;9.20;93.39;93843.78;4992073;28;20235;-73
2023/04/26 03:52:22;;;;;;;10.33;6.13;;;;;;;9.30;93.45;93849.28;4991875;28;20185;-73
2023/04/26 03:54:48;;;;;;;8.53;5.57;;;;;;;9.50;93.23;93850.75;4990784;28;20235;-73
2023/04/26 03:57:13;;;;;;;9.83;6.70;;;;;;;9.69;92.84;93853.03;4991682;28;20185;-73
2023/04/26 03:59:38;;;;;;;11.53;6.07;;;;;;;9.86;92.66;93854.97;5003395;28;20180;-73
2023/04/26 04:02:04;;;;;;;11.17;5.67;;;;;;;10.02;92.06;93854.25;5011290;28;20173;-73
2023/04/26 04:04:29;;;;;;;12.97;5.33;;;;;;;10.19;91.58;93860.41;5011433;28;20211;-74
2023/04/26 04:06:55;;;;;;;13.30;5.90;;;;;;;10.24;90.99;93833.41;5000627;28;20184;-73
2023/04/26 04:09:21;;;;;;;9.30;5.23;;;;;;;10.47;90.31;93854.38;4991811;28;20717;-74
2023/04/26 04:11:46;;;;;;;12.53;6.63;;;;;;;10.59;90.12;93866.47;4991750;28;20181;-73
2023/04/26 04:14:11;;;;;;;11.73;6.70;;;;;;;10.61;88.86;93862.78;4992030;28;20264;-74
2023/04/26 04:16:37;;;;;;;13.57;6.40;;;;;;;10.61;88.53;93860.97;4992283;28;20177;-75
2023/04/26 04:19:02;;;;;;;11.20;6.10;;;;;;;10.72;88.80;93875.13;5008736;28;20191;-74
2023/04/26 04:21:28;;;;;;;11.17;6.40;;;;;;;10.82;89.01;93873.44;5011647;28;20243;-76
2023/04/26 04:23:53;;;;;;;14.70;8.67;;;;;;;10.91;88.96;93871.22;5011413;28;20565;-74
2023/04/26 04:26:19;;;;;;;14.10;9.17;;;;;;;11.01;88.70;93878.50;5010983;28;20689;-74
2023/04/26 04:28:46;;;;;;;15.93;9.87;;;;;;;11.08;88.41;93874.69;4995882;28;20669;-73
2023/04/26 04:31:12;;;;;;;16.77;10.53;;;;;;;11.15;88.36;93859.53;4990383;28;20621;-73
2023/04/26 04:33:37;;;;;;;16.07;8.57;;;;;;;11.41;87.89;93881.03;4989653;28;20275;-73
2023/04/26 04:36:03;;;;;;;14.37;8.13;;;;;;;11.54;87.14;93881.50;4990095;28;20283;-73
2023/04/26 04:38:29;;;;;;;12.03;5.77;;;;;;;11.66;87.03;93869.03;4990131;28;20196;-73
2023/04/26 04:40:55;;;;;;;8.83;5.70;;;;;;;11.87;85.63;93879.88;4990038;28;20188;-74
2023/04/26 04:43:22;;;;;;;8.77;5.13;;;;;;;12.17;84.75;93885.59;4989922;28;20177;-74
2023/04/26 04:45:50;;;;;;;8.97;5.47;;;;;;;12.56;83.13;93890.78;4994715;28;20184;-74
2023/04/26 04:48:17;;;;;;;8.13;4.50;;;;;;;12.55;82.09;93862.78;5010704;28;20173;-74
2023/04/26 04:50:42;;;;;;;6.13;4.00;;;;;;;13.02;82.05;93898.19;5010542;28;20180;-73
2023/04/26 04:53:08;;;;;;;6.00;4.03;;;;;;;13.19;81.28;93890.19;5010764;28;20222;-73
2023/04/26 04:55:35;;;;;;;6.90;4.17;;;;;;;13.14;79.61;93892.78;5007221;28;20556;-73
2023/04/26 04:58:02;;;;;;;9.87;4.83;;;;;;;13.10;79.57;93892.44;4988797;28;20639;-74
2023/04/26 05:00:28;;;;;;;8.73;5.27;;;;;;;13.01;79.33;93890.50;4991099;28;20173;-74
2023/04/26 05:02:54;;;;;;;8.83;4.90;;;;;;;13.01;80.34;93888.66;4990999;28;20184;-73
2023/04/26 05:05:19;;;;;;;5.10;3.40;;;;;;;12.84;80.95;93850.97;4991555;28;20736;-74
2023/04/26 05:07:45;;;;;;;7.07;3.70;;;;;;;13.36;80.99;93888.22;4997556;28;20242;-74
2023/04/26 05:10:11;;;;;;;4.97;3.27;;;;;;;13.65;78.48;93894.00;5007859;28;20277;-73
2023/04/26 05:12:36;;;;;;;3.57;2.77;;;;;;;13.63;77.56;93877.59;4997630;28;20183;-74
2023/04/26 05:15:03;;;;;;;6.80;4.00;;;;;;;13.76;77.11;93892.22;4997757;28;20161;-74
2023/04/26 05:17:31;;;;;;;7.50;3.20;;;;;;;13.85;77.38;93893.34;4997646;28;20660;-75
2023/04/26 05:19:56;;;;;;;8.20;3.50;;;;;;;13.93;77.51;93890.22;4997569;28;20228;-75
2023/04/26 05:22:22;;;;;;;6.60;3.60;;;;;;;14.02;76.56;93893.19;4997650;28;20259;-75
2023/04/26 05:24:47;;;;;;;7.83;4.43;;;;;;;14.10;75.83;93892.69;5005234;28;20212;-74
2023/04/26 05:27:13;;;;;;;7.07;4.20;;;;;;;14.18;75.86;93898.31;4997924;28;20233;-74
2023/04/26 05:29:39;;;;;;;6.60;4.10;;;;;;;14.23;75.94;93885.13;4997575;28;20181;-75
2023/04/26 05:32:05;;;;;;;11.57;3.93;;;;;;;14.37;74.73;93901.31;4997075;28;20169;-75
2023/04/26 05:34:30;;;;;;;6.40;3.40;;;;;;;14.50;75.35;93902.75;4996956;28;20177;-75
2023/04/26 05:36:56;;;;;;;7.00;3.67;;;;;;;14.93;74.91;93905.03;4997575;28;20582;-75
2023/04/26 05:39:21;;;;;;;7.63;4.30;;;;;;;15.44;72.12;93907.78;4997504;28;20204;-75
2023/04/26 05:41:47;;;;;;;9.60;3.70;;;;;;;15.62;71.96;93917.09;4997605;28;20177;-75
2023/04/26 05:44:13;;;;;;;5.73;3.73;;;;;;;15.64;71.06;93920.28;5005550;28;20204;-75
2023/04/26 05:46:39;;;;;;;7.15;3.10;;;;;;;15.52;70.80;93917.84;5008141;28;20192;-75
2023/04/26 05:49:04;;;;;;;5.32;3.38;;;;;;;15.38;70.24;93920.25;5015733;28;20187;-75
2023/04/26 05:51:29;;;;;;;5.40;3.33;;;;;;;15.30;71.52;93928.72;5016067;28;20182;-75
2023/04/26 05:53:56;;;;;;;6.23;3.50;;;;;;;15.17;71.37;93915.94;5016217;28;20322;-75
2023/04/26 05:56:22;;;;;;;4.73;2.97;;;;;;;15.26;72.23;93918.88;5015749;28;20267;-75
2023/04/26 05:58:48;;;;;;;5.15;3.60;;;;;;;15.36;70.43;93925.00;5002295;28;20533;-75
2023/04/26 06:01:13;;;;;;;3.80;2.90;;;;;;;15.62;70.29;93930.38;4997217;28;20264;-75
2023/04/26 06:03:39;;;;;;;4.20;2.92;;;;;;;15.88;69.72;93928.50;4990863;28;20195;-75
2023/04/26 06:06:04;;;;;;;5.80;3.20;;;;;;;16.07;69.51;93934.88;5004202;28;20208;-75
2023/04/26 06:08:30;;;;;;;7.03;2.88;;;;;;;16.14;68.48;93935.41;5001804;28;20671;-75
2023/04/26 06:10:55;;;;;;;4.70;3.40;;;;;;;16.13;67.88;93934.59;4996995;28;20196;-74
2023/04/26 06:13:21;;;;;;;4.40;3.22;;;;;;;16.07;67.71;93930.38;4997162;28;20639;-74
2023/04/26 06:15:46;;;;;;;4.47;2.95;;;;;;;16.07;66.65;93933.03;4996981;28;20251;-74
2023/04/26 06:18:11;;;;;;;5.13;2.90;;;;;;;16.22;67.02;93932.19;4994018;28;20639;-74
2023/04/26 06:20:37;;;;;;;3.67;2.53;;;;;;;16.23;65.65;93913.34;4994040;28;20192;-74
2023/04/26 06:23:02;;;;;;;8.00;3.40;;;;;;;16.32;66.72;93942.00;4994019;28;20268;-74
2023/04/26 06:25:27;;;;;;;5.13;3.50;;;;;;;16.33;66.65;93943.59;5000186;28;20613;-75
2023/04/26 06:27:53;;;;;;;3.10;2.72;;;;;;;16.41;65.44;93945.72;5013640;28;20928;-75
2023/04/26 06:30:19;;;;;;;8.95;4.88;;;;;;;16.42;64.75;93939.34;5013690;28;20638;-75
2023/04/26 06:32:44;;;;;;;4.75;3.70;;;;;;;16.20;63.58;93940.44;5013315;28;20638;-74
2023/04/26 06:35:10;;;;;;;3.03;2.72;;;;;;;16.22;63.87;93946.28;4994292;28;20169;-75
2023/04/26 06:37:36;;;;;;;5.43;3.40;;;;;;;16.18;64.09;93945.19;4993760;28;20567;-75
2023/04/26 06:40:02;;;;;;;4.35;3.65;;;;;;;16.23;65.57;93937.25;4993685;28;20232;-75
2023/04/26 06:42:28;;;;;;;7.05;3.58;;;;;;;16.48;64.57;93943.56;4993587;28;20184;-75
2023/04/26 06:44:53;;;;;;;5.60;3.47;;;;;;;16.53;64.28;93931.06;4993609;28;20200;-75
2023/04/26 06:47:19;;;;;;;5.40;3.53;;;;;;;16.67;63.50;93939.28;4993581;28;20169;-75
2023/04/26 06:49:44;;;;;;;4.72;3.60;;;;;;;16.80;63.05;93949.34;4993781;28;20252;-75
2023/04/26 06:52:09;;;;;;;4.65;3.33;;;;;;;16.94;62.81;93958.34;4999667;28;20567;-75
2023/04/26 06:54:35;;;;;;;5.38;3.67;;;;;;;16.77;62.12;93960.53;4998100;28;20200;-75
2023/04/26 06:57:01;;;;;;;9.73;4.38;;;;;;;16.99;63.28;93954.84;5007440;28;20232;-75
2023/04/26 06:59:26;;;;;;;7.25;4.70;;;;;;;17.23;61.35;93958.47;5011461;28;20219;-76
2023/04/26 07:01:53;;;;;;;6.38;4.00;;;;;;;17.73;62.72;93956.59;5014534;28;20600;-75
2023/04/26 07:04:19;;;;;;;6.90;5.47;;;;;;;18.21;62.27;93970.88;5014762;28;20188;-75
2023/04/26 07:06:45;;;;;;;5.25;3.90;;;;;;;18.54;60.00;93965.78;5001687;28;20177;-76
2023/04/26 07:09:11;;;;;;;6.38;4.18;;;;;;;18.73;59.01;93948.00;5007332;28;20988;-76
2023/04/26 07:11:36;;;;;;;10.85;5.03;;;;;;;18.92;58.71;93956.88;4994633;28;20228;-76
2023/04/26 07:14:02;;;;;;;7.18;4.38;;;;;;;19.14;58.33;93954.47;4992997;28;20669;-75
2023/04/26 07:16:28;;;;;;;6.30;4.10;;;;;;;19.18;55.99;93960.81;4993780;28;20173;-77
2023/04/26 07:18:56;;;;;;;5.40;4.20;;;;;;;19.21;55.74;93960.22;4997423;28;20175;-76
2023/04/26 07:21:22;;;;;;;5.28;3.88;;;;;;;19.12;56.04;93953.16;4998031;28;20181;-77
2023/04/26 07:23:47;;;;;;;8.95;5.32;;;;;;;19.01;56.35;93949.03;4993133;28;20189;-76
2023/04/26 07:26:13;;;;;;;11.70;5.25;;;;;;;19.08;56.40;93946.81;5006541;28;20224;-78
2023/04/26 07:28:38;;;;;;;4.57;3.63;;;;;;;19.25;54.99;93954.34;5006164;28;20177;-76
2023/04/26 07:31:04;;;;;;;4.13;3.67;;;;;;;18.69;53.04;93958.44;4996362;28;20260;-78
2023/04/26 07:33:29;;;;;;;3.83;2.90;;;;;;;18.53;55.15;93956.19;5006604;28;20175;-77
2023/04/26 07:35:56;;;;;;;6.18;3.38;;;;;;;17.99;54.34;93955.31;5003011;28;20180;-76
2023/04/26 07:38:22;;;;;;;4.90;3.92;;;;;;;17.89;55.82;93959.97;5012911;28;20202;-76
2023/04/26 07:40:48;;;;;;;5.13;3.30;;;;;;;17.67;56.34;93966.50;5012567;28;20251;-77
2023/04/26 07:43:14;;;;;;;3.58;3.28;;;;;;;17.40;56.97;93966.09;5012088;28;20258;-75
2023/04/26 07:45:40;;;;;;;9.95;3.92;;;;;;;17.27;56.55;93970.16;4997085;28;20292;-75
2023/04/26 07:48:06;;;;;;;6.72;4.38;;;;;;;17.11;55.56;93962.53;4992575;28;20259;-75
2023/04/26 07:50:31;;;;;;;7.30;3.72;;;;;;;16.96;55.45;93966.81;4992598;28;20173;-75
2023/04/26 07:52:56;;;;;;;27.85;7.47;;;;;;;16.76;55.85;93974.88;4993011;28;20185;-76
2023/04/26 07:55:22;;;;;;;7.35;3.78;;;;;;;16.71;57.04;93969.56;4992624;28;20272;-75
2023/04/26 07:57:47;;;;;;;19.40;6.40;;;;;;;16.74;57.67;93962.91;4998743;28;20618;-75
2023/04/26 08:00:14;;;;;;;66.45;15.13;;;;;;;16.65;57.62;93968.00;5002333;28;20197;-75
2023/04/26 08:02:40;;;;;;;321.92;54.30;;;;;;;16.62;58.42;93973.84;4996867;28;20176;-74
2023/04/26 08:05:06;;;;;;;64.85;13.52;;;;;;;16.46;57.44;93974.91;5011279;28;20196;-74
2023/04/26 08:07:32;;;;;;;104.70;20.70;;;;;;;16.25;57.30;93968.84;4981466;28;20185;-75
2023/04/26 08:09:57;;;;;;;66.70;12.57;;;;;;;16.07;57.71;93972.03;4973978;28;20176;-75
2023/04/26 08:12:22;;;;;;;18.17;6.23;;;;;;;16.09;59.87;93965.38;4991809;28;20177;-75
2023/04/26 08:14:48;;;;;;;15.70;5.28;;;;;;;16.40;59.58;93970.69;4995979;28;20171;-74
2023/04/26 08:17:13;;;;;;;50.85;10.15;;;;;;;16.74;60.29;93971.69;5011312;28;20198;-74
2023/04/26 08:19:40;;;;;;;15.13;5.55;;;;;;;16.88;58.53;93980.69;4992541;28;20714;-75
2023/04/26 08:22:06;;;;;;;6.60;3.90;;;;;;;17.04;58.60;93967.34;4991916;28;20204;-75
2023/04/26 08:24:31;;;;;;;5.22;3.50;;;;;;;17.07;57.16;93956.94;4991832;28;20624;-75
2023/04/26 08:27:00;;;;;;;6.22;3.42;;;;;;;16.94;55.77;93963.66;4991630;28;20221;-75
2023/04/26 08:29:26;;;;;;;3.45;3.15;;;;;;;16.77;58.11;93973.03;4990535;28;20169;-75
2023/04/26 08:31:52;;;;;;;5.10;4.03;;;;;;;16.97;59.17;93971.06;4991787;28;20184;-75
2023/04/26 08:34:18;;;;;;;5.15;3.15;;;;;;;17.08;56.38;93971.84;4996590;28;20172;-76
2023/04/26 08:36:44;;;;;;;7.80;3.65;;;;;;;17.17;56.43;93974.72;5010385;28;20687;-76
2023/04/26 08:39:11;;;;;;;129.48;25.27;;;;;;;17.10;56.27;93960.94;5001545;28;20177;-75
2023/04/26 08:41:42;;;;;;;72.82;14.57;;;;;;;17.21;57.39;93957.16;5004098;28;20185;-75
2023/04/26 08:44:08;;;;;;;6.03;3.28;;;;;;;17.31;55.53;93970.38;4991557;28;20197;-76
2023/04/26 08:46:40;;;;;;;88.93;16.38;;;;;;;17.36;56.02;93967.72;5005032;28;20191;-75
2023/04/26 08:49:31;;;;;;;73.93;15.43;;;;;;;17.34;54.01;93972.50;5010750;28;20632;-75
2023/04/26 08:51:57;;;;;;;36.60;10.23;;;;;;;17.31;55.62;93970.38;4994701;28;20248;-74
2023/04/26 08:54:24;;;;;;;15.25;4.75;;;;;;;17.34;56.27;93970.66;4991220;28;20724;-74
2023/04/26 08:56:51;;;;;;;4.80;3.08;;;;;;;17.19;53.97;93962.75;4990596;28;20673;-74
2023/04/26 08:59:18;;;;;;;24.98;5.25;;;;;;;17.10;55.22;93961.72;4990341;28;20209;-75
2023/04/26 09:01:44;;;;;;;14.65;4.47;;;;;;;17.09;57.15;93964.66;4990474;28;20200;-75
2023/04/26 09:04:10;;;;;;;49.55;8.88;;;;;;;16.97;55.54;93963.09;4990337;28;20678;-75
2023/04/26 09:06:36;;;;;;;28.20;7.18;;;;;;;16.95;55.20;93973.19;4990441;28;20236;-75
2023/04/26 09:09:06;;;;;;;22.50;5.25;;;;;;;16.92;56.09;93976.41;4989930;28;20231;-75
2023/04/26 09:11:52;;;;;;;3.35;2.65;;;;;;;16.84;56.33;93962.91;4988326;28;20220;-75
2023/04/26 09:14:18;;;;;;;3.22;2.63;;;;;;;16.95;56.04;93975.84;4997128;28;20165;-76
2023/04/26 09:16:43;;;;;;;2.72;2.40;;;;;;;17.06;56.39;93978.47;5002560;28;20173;-76
2023/04/26 09:19:09;;;;;;;3.75;2.35;;;;;;;17.01;56.25;93981.19;5006937;28;20199;-76
2023/04/26 09:21:43;;;;;;;9.68;3.38;;;;;;;17.06;57.22;93973.97;5008516;28;20183;-74
2023/04/26 09:24:08;;;;;;;5.25;2.22;;;;;;;17.26;54.88;93989.84;4996940;28;20196;-75
2023/04/26 09:26:34;;;;;;;3.65;2.28;;;;;;;17.29;54.53;93977.88;5001989;28;20660;-75
2023/04/26 09:29:16;;;;;;;4.13;2.28;;;;;;;17.23;52.96;93973.63;4991229;28;20697;-75
2023/04/26 09:31:48;;;;;;;6.28;2.47;;;;;;;16.96;53.50;93976.66;4990106;28;20173;-75
2023/04/26 09:34:14;;;;;;;3.28;2.65;;;;;;;16.81;54.64;93958.91;4990240;28;20186;-75
2023/04/26 09:36:49;;;;;;;2.58;2.35;;;;;;;16.97;55.70;93972.94;4990331;28;20235;-75
2023/04/26 09:39:30;;;;;;;3.08;2.17;;;;;;;16.88;55.08;93959.41;4990311;28;20200;-75
2023/04/26 09:41:56;;;;;;;5.78;2.20;;;;;;;17.05;56.30;93964.38;4988954;28;20180;-75
2023/04/26 09:44:23;;;;;;;4.55;3.35;;;;;;;17.07;54.85;93964.91;4988266;28;20197;-75
2023/04/26 09:46:57;;;;;;;9.07;3.00;;;;;;;17.34;54.47;93981.28;4988328;28;20191;-75
2023/04/26 09:49:25;;;;;;;3.72;2.30;;;;;;;17.34;52.34;93975.97;4988388;28;20227;-75
2023/04/26 09:52:04;;;;;;;3.83;2.33;;;;;;;17.47;54.69;93969.22;4988375;28;20192;-75
2023/04/26 09:54:46;;;;;;;2.40;2.20;;;;;;;17.58;53.66;93978.75;4991789;28;20640;-75
2023/04/26 09:57:14;;;;;;;2.00;1.80;;;;;;;17.65;51.87;93976.59;4993539;28;20209;-75
2023/04/26 09:59:44;;;;;;;14.35;3.00;;;;;;;17.71;52.88;93962.22;4993765;28;20177;-75
2023/04/26 10:02:24;;;;;;;3.13;2.17;;;;;;;17.79;51.86;93965.34;5012665;28;20184;-75
2023/04/26 10:04:52;;;;;;;30.48;17.27;;;;;;;17.83;51.63;93963.72;5013240;28;20624;-74
2023/04/26 10:07:20;;;;;;;2.90;2.50;;;;;;;17.98;52.85;93960.97;5014119;28;20251;-75
2023/04/26 10:09:46;;;;;;;5.03;2.20;;;;;;;17.96;50.65;93947.13;5004501;28;20188;-75
2023/04/26 10:12:13;;;;;;;2.70;1.70;;;;;;;18.16;49.26;93962.16;4992863;28;20564;-75
2023/04/26 10:14:40;;;;;;;2.00;1.73;;;;;;;18.20;49.01;93966.63;4975751;28;20166;-75
2023/04/26 10:17:06;;;;;;;2.00;1.50;;;;;;;17.98;48.30;93956.44;4992713;28;20181;-75
2023/04/26 10:19:34;;;;;;;7.55;1.80;;;;;;;17.86;49.90;93947.19;4993877;28;20177;-74
2023/04/26 10:22:08;;;;;;;2.17;1.85;;;;;;;17.85;49.75;93961.56;4993842;28;20173;-74
2023/04/26 10:24:36;;;;;;;5.28;1.88;;;;;;;17.81;50.31;93963.22;4993821;28;20228;-75
2023/04/26 10:27:03;;;;;;;2.03;1.92;;;;;;;17.63;50.04;93959.34;4993861;28;20221;-74
2023/04/26 10:29:53;;;;;;;2.03;1.70;;;;;;;17.64;50.44;93967.03;4993867;28;20562;-76
2023/04/26 10:32:19;;;;;;;4.20;1.90;;;;;;;17.48;48.62;93938.09;4996303;28;20761;-75
2023/04/26 10:35:11;;;;;;;1.70;1.58;;;;;;;17.57;48.93;93958.53;4992520;28;20173;-75
2023/04/26 10:37:59;;;;;;;1.88;1.70;;;;;;;17.65;49.34;93959.84;4991663;28;20185;-75
2023/04/26 10:40:37;;;;;;;4.05;2.50;;;;;;;17.74;50.83;93950.19;4990089;28;20177;-75
2023/04/26 10:43:09;;;;;;;2.97;2.03;;;;;;;18.01;50.66;93957.72;4975267;28;20937;-75
2023/04/26 10:45:35;;;;;;;2.35;1.90;;;;;;;18.21;49.39;93951.44;4992498;28;20230;-75
2023/04/26 10:48:20;;;;;;;1.83;1.48;;;;;;;18.04;45.61;93952.63;4992448;28;20701;-75
2023/04/26 10:51:00;;;;;;;7.38;1.95;;;;;;;17.85;47.89;93953.59;4992209;28;20176;-75
2023/04/26 10:53:46;;;;;;;1.50;1.40;;;;;;;17.71;48.12;93953.44;4990771;28;20616;-74
2023/04/26 10:56:26;;;;;;;1.83;1.60;;;;;;;17.59;47.73;93951.06;4987333;28;20640;-75
2023/04/26 10:59:09;;;;;;;3.53;1.50;;;;;;;17.51;49.00;93946.34;4991394;28;20212;-75
2023/04/26 11:01:35;;;;;;;2.10;1.65;;;;;;;17.42;49.37;93945.31;4991339;28;20180;-75
2023/04/26 11:04:08;;;;;;;3.15;1.45;;;;;;;17.42;49.23;93940.00;4992051;28;20836;-75
2023/04/26 11:06:51;;;;;;;2.47;2.00;;;;;;;17.63;50.84;93949.50;4991465;28;20701;-75
2023/04/26 11:09:38;;;;;;;4.15;2.25;;;;;;;17.75;49.93;93951.00;4992251;28;20209;-76
2023/04/26 11:12:10;;;;;;;1.90;1.63;;;;;;;17.74;48.41;93931.56;4994150;28;20214;-75
2023/04/26 11:14:35;;;;;;;3.28;2.22;;;;;;;17.79;47.67;93950.19;4985327;28;20170;-75
2023/04/26 11:17:08;;;;;;;1.88;1.67;;;;;;;17.85;48.28;93921.63;4992967;28;20240;-75
2023/04/26 11:19:34;;;;;;;2.95;1.50;;;;;;;18.19;48.36;93937.59;4993576;28;20177;-77
2023/04/26 11:22:01;;;;;;;2.15;1.70;;;;;;;18.07;46.17;93920.09;4989349;28;20181;-77
2023/04/26 11:24:30;;;;;;;2.80;1.83;;;;;;;18.23;47.42;93944.75;4985143;28;20670;-76
2023/04/26 11:26:56;;;;;;;5.97;2.08;;;;;;;18.17;48.58;93945.84;4988517;28;20224;-75
2023/04/26 11:29:23;;;;;;;3.15;2.28;;;;;;;17.97;46.17;93951.38;4990302;28;20173;-76
2023/04/26 11:31:55;;;;;;;3.90;2.38;;;;;;;17.76;46.31;93956.03;4988741;28;20196;-75
2023/04/26 11:34:30;;;;;;;3.70;1.73;;;;;;;17.70;47.22;93949.19;4989553;28;20248;-75